Time;durP1;ratioP1;P1;durP2;ratioP2;P2;SDS_P1;SDS_P2;PMS_P1;PMS_P2;Temp;Humidity;BMP_temperature;BMP_pressure;BME280_temperature;BME280_humidity;BME280_pressure;Samples;Min_cycle;Max_cycle;Signal;HPM_P1;HPM_P2
2023/11/18 00:01:15;;;;;;;8.27;7.33;;;5.70;72.10;;;;;;5051369;28;20545;-54
2023/11/18 00:03:41;;;;;;;8.07;7.37;;;5.70;72.50;;;;;;5047542;28;20201;-52
2023/11/18 00:06:08;;;;;;;8.00;7.20;;;5.70;72.20;;;;;;5051607;28;20227;-51
2023/11/18 00:08:35;;;;;;;7.90;7.10;;;5.70;72.60;;;;;;5050165;28;20397;-53
2023/11/18 00:11:02;;;;;;;7.97;7.27;;;5.70;72.40;;;;;;5041799;28;20205;-53
2023/11/18 00:13:29;;;;;;;7.80;7.17;;;5.70;71.90;;;;;;5051455;28;20214;-54
2023/11/18 00:15:57;;;;;;;7.83;7.13;;;5.70;72.00;;;;;;5050556;28;20283;-52
2023/11/18 00:18:24;;;;;;;8.67;6.73;;;5.70;71.80;;;;;;5051756;28;20220;-56
2023/11/18 00:20:51;;;;;;;7.50;6.80;;;5.80;71.80;;;;;;5051672;28;20234;-51
2023/11/18 00:23:18;;;;;;;7.93;7.20;;;5.70;71.30;;;;;;5052075;28;20212;-51
2023/11/18 00:25:45;;;;;;;7.60;7.00;;;5.70;71.40;;;;;;5048522;28;20240;-54
2023/11/18 00:28:11;;;;;;;7.87;7.17;;;5.70;71.60;;;;;;5045177;28;20638;-51
2023/11/18 00:30:38;;;;;;;7.30;6.70;;;5.70;71.50;;;;;;5050347;28;20318;-54
2023/11/18 00:33:04;;;;;;;7.70;6.83;;;5.60;71.60;;;;;;5045665;28;20210;-56
2023/11/18 00:35:31;;;;;;;6.50;5.97;;;5.60;71.80;;;;;;5048035;28;20230;-52
2023/11/18 00:37:58;;;;;;;6.70;6.10;;;5.60;72.10;;;;;;5046519;28;20217;-53
2023/11/18 00:40:24;;;;;;;6.03;5.53;;;5.60;72.00;;;;;;5045287;28;20207;-54
2023/11/18 00:42:51;;;;;;;6.63;6.13;;;5.60;70.90;;;;;;5046724;28;20302;-53
2023/11/18 00:45:18;;;;;;;5.43;5.03;;;5.50;71.40;;;;;;5045745;28;20360;-51
2023/11/18 00:47:44;;;;;;;5.27;4.77;;;5.50;71.00;;;;;;5048269;28;20234;-54
2023/11/18 00:50:10;;;;;;;5.20;4.80;;;5.50;70.50;;;;;;5048397;28;20317;-53
2023/11/18 00:52:38;;;;;;;4.70;4.40;;;5.50;70.80;;;;;;5050158;28;20213;-55
2023/11/18 00:55:06;;;;;;;4.90;4.50;;;5.60;70.50;;;;;;5055923;28;20264;-54
2023/11/18 00:57:32;;;;;;;4.13;3.83;;;5.60;70.10;;;;;;5050702;28;20202;-53
2023/11/18 00:59:59;;;;;;;4.60;4.30;;;5.60;70.00;;;;;;5050321;28;20657;-52
2023/11/18 01:02:26;;;;;;;4.77;4.37;;;5.50;69.90;;;;;;5049430;28;20689;-53
2023/11/18 01:04:52;;;;;;;4.00;3.70;;;5.50;69.80;;;;;;5051347;28;20225;-52
2023/11/18 01:07:19;;;;;;;4.30;4.00;;;5.50;69.50;;;;;;5051029;28;20221;-50
2023/11/18 01:09:46;;;;;;;4.67;4.37;;;5.50;69.60;;;;;;5040489;28;20232;-54
2023/11/18 01:12:13;;;;;;;4.33;4.03;;;5.50;69.50;;;;;;5048742;28;20653;-54
2023/11/18 01:14:39;;;;;;;4.40;4.10;;;5.50;70.00;;;;;;5050221;28;20591;-51
2023/11/18 01:17:06;;;;;;;3.73;3.53;;;5.50;69.90;;;;;;5042762;28;20226;-56
2023/11/18 01:19:33;;;;;;;4.13;3.83;;;5.50;69.80;;;;;;5040234;28;20212;-54
2023/11/18 01:21:59;;;;;;;3.80;3.50;;;5.40;69.50;;;;;;5044713;28;20199;-53
2023/11/18 01:24:26;;;;;;;4.00;3.60;;;5.40;69.80;;;;;;5043859;28;20274;-57
2023/11/18 01:26:52;;;;;;;4.03;3.73;;;5.50;69.80;;;;;;5050049;28;20206;-53
2023/11/18 01:29:21;;;;;;;3.90;3.60;;;5.50;69.60;;;;;;5034533;28;20685;-52
2023/11/18 01:31:47;;;;;;;3.63;3.43;;;5.50;69.40;;;;;;5042153;28;20207;-51
2023/11/18 01:34:13;;;;;;;3.70;3.50;;;5.50;69.60;;;;;;5051836;28;20211;-52
2023/11/18 01:36:40;;;;;;;3.90;3.60;;;5.50;69.60;;;;;;5040747;28;20206;-55
2023/11/18 01:39:07;;;;;;;3.70;3.50;;;5.60;69.80;;;;;;5036199;28;20674;-53
2023/11/18 01:41:33;;;;;;;3.70;3.50;;;5.50;69.20;;;;;;5042407;28;20217;-50
2023/11/18 01:44:00;;;;;;;3.60;3.40;;;5.50;69.50;;;;;;5044414;28;20732;-52
2023/11/18 01:46:29;;;;;;;3.57;3.37;;;5.50;69.30;;;;;;5047945;28;20222;-56
2023/11/18 01:48:56;;;;;;;3.90;3.53;;;5.50;68.90;;;;;;5048400;28;20227;-55
2023/11/18 01:51:23;;;;;;;3.80;3.60;;;5.60;68.90;;;;;;5043522;28;20298;-51
2023/11/18 01:53:49;;;;;;;3.93;3.63;;;5.50;69.00;;;;;;5051612;28;20206;-52
2023/11/18 01:56:16;;;;;;;3.70;3.50;;;5.50;69.50;;;;;;5042151;28;20233;-53
2023/11/18 01:58:43;;;;;;;4.07;3.77;;;5.50;69.80;;;;;;5050328;28;20249;-52
2023/11/18 02:01:10;;;;;;;3.70;3.40;;;5.50;69.60;;;;;;5050125;28;20207;-51
2023/11/18 02:03:37;;;;;;;3.80;3.60;;;5.50;69.50;;;;;;5048609;28;20203;-54
2023/11/18 02:06:05;;;;;;;3.97;3.70;;;5.50;69.50;;;;;;5044121;28;20674;-52
2023/11/18 02:08:34;;;;;;;3.60;3.40;;;5.60;69.50;;;;;;5046836;28;20226;-54
2023/11/18 02:11:01;;;;;;;3.60;3.40;;;5.50;69.80;;;;;;5049967;28;20229;-55
2023/11/18 02:13:27;;;;;;;4.23;3.83;;;5.50;69.90;;;;;;5051383;28;20747;-53
2023/11/18 02:15:54;;;;;;;3.60;3.40;;;5.50;69.80;;;;;;5049972;28;20790;-55
2023/11/18 02:18:21;;;;;;;3.63;3.33;;;5.50;69.60;;;;;;5048859;28;20206;-52
2023/11/18 02:20:48;;;;;;;4.37;4.07;;;5.50;69.70;;;;;;5049941;28;20208;-52
2023/11/18 02:23:15;;;;;;;3.87;3.30;;;5.40;69.70;;;;;;5042694;28;20237;-54
2023/11/18 02:25:41;;;;;;;3.60;3.30;;;5.40;69.90;;;;;;5040123;28;20258;-51
2023/11/18 02:28:09;;;;;;;3.60;3.40;;;5.40;69.90;;;;;;5048459;28;20220;-51
2023/11/18 02:30:36;;;;;;;3.93;3.63;;;5.50;69.80;;;;;;5042661;28;20242;-53
2023/11/18 02:33:05;;;;;;;3.83;3.60;;;5.50;69.80;;;;;;5044412;28;20285;-54
2023/11/18 02:35:31;;;;;;;3.80;3.50;;;5.50;69.80;;;;;;5042772;28;20638;-54
2023/11/18 02:37:58;;;;;;;4.47;4.17;;;5.50;69.80;;;;;;5041692;28;20218;-52
2023/11/18 02:40:24;;;;;;;4.00;3.70;;;5.50;70.10;;;;;;5039834;28;20205;-53
2023/11/18 02:42:52;;;;;;;3.70;3.40;;;5.60;69.90;;;;;;5042308;28;20212;-52
2023/11/18 02:45:19;;;;;;;3.97;3.67;;;5.60;69.20;;;;;;5041317;28;20312;-53
2023/11/18 02:47:45;;;;;;;3.97;3.67;;;5.50;69.60;;;;;;5048236;28;20283;-53
2023/11/18 02:50:13;;;;;;;4.70;4.30;;;5.50;69.90;;;;;;5049527;28;20317;-53
2023/11/18 02:52:39;;;;;;;3.60;3.40;;;5.50;70.10;;;;;;5049945;28;20203;-53
2023/11/18 02:55:07;;;;;;;4.00;3.70;;;5.50;70.00;;;;;;5047713;28;20802;-52
2023/11/18 02:57:34;;;;;;;3.90;3.60;;;5.50;69.90;;;;;;5048310;28;20293;-52
2023/11/18 03:00:01;;;;;;;4.10;3.80;;;5.50;70.00;;;;;;5041709;28;20217;-49
2023/11/18 03:02:29;;;;;;;3.77;3.57;;;5.50;69.70;;;;;;5048726;28;20205;-52
2023/11/18 03:04:56;;;;;;;5.80;5.17;;;5.50;69.70;;;;;;5047576;28;20221;-52
2023/11/18 03:07:22;;;;;;;4.13;3.83;;;5.50;70.20;;;;;;5049157;28;20834;-51
2023/11/18 03:09:49;;;;;;;4.30;4.00;;;5.50;70.00;;;;;;5041494;28;20236;-52
2023/11/18 03:12:16;;;;;;;4.10;3.80;;;5.50;70.30;;;;;;5039601;28;20212;-52
2023/11/18 03:14:43;;;;;;;4.13;3.83;;;5.50;70.20;;;;;;5045860;28;20309;-51
2023/11/18 03:17:09;;;;;;;3.73;3.50;;;5.50;70.00;;;;;;5050101;28;20756;-54
2023/11/18 03:19:36;;;;;;;4.27;3.97;;;5.50;70.30;;;;;;5040158;28;20213;-54
2023/11/18 03:22:03;;;;;;;4.13;3.83;;;5.40;69.90;;;;;;5039286;28;20206;-52
2023/11/18 03:24:29;;;;;;;4.23;3.93;;;5.40;70.50;;;;;;5046553;28;20209;-53
2023/11/18 03:26:55;;;;;;;3.80;3.60;;;5.50;70.10;;;;;;5043906;28;20297;-51
2023/11/18 03:29:22;;;;;;;4.30;4.00;;;5.50;69.90;;;;;;5048706;28;20313;-51
2023/11/18 03:31:49;;;;;;;4.07;3.77;;;5.50;70.20;;;;;;5048110;28;20210;-54
2023/11/18 03:34:15;;;;;;;4.20;3.90;;;5.50;70.00;;;;;;5040328;28;20293;-51
2023/11/18 03:36:42;;;;;;;4.10;3.80;;;5.50;69.80;;;;;;5049292;28;20203;-50
2023/11/18 03:39:10;;;;;;;3.97;3.67;;;5.50;69.70;;;;;;5043085;28;20303;-52
2023/11/18 03:41:37;;;;;;;3.90;3.60;;;5.60;69.80;;;;;;5041641;28;20265;-53
2023/11/18 03:44:03;;;;;;;4.23;3.83;;;5.50;69.70;;;;;;5042093;28;20203;-53
2023/11/18 03:46:34;;;;;;;4.17;3.87;;;5.50;70.70;;;;;;5045462;28;20237;-51
2023/11/18 03:49:00;;;;;;;4.10;3.80;;;5.50;70.10;;;;;;5049373;28;20257;-51
2023/11/18 03:51:27;;;;;;;4.57;4.27;;;5.50;70.10;;;;;;5045860;28;20273;-52
2023/11/18 03:53:53;;;;;;;5.20;4.80;;;5.50;70.00;;;;;;5050850;28;20207;-50
2023/11/18 03:56:19;;;;;;;4.30;4.00;;;5.50;70.00;;;;;;5052793;28;20225;-51
2023/11/18 03:58:47;;;;;;;4.57;4.20;;;5.50;70.10;;;;;;5046090;28;20221;-52
2023/11/18 04:01:13;;;;;;;4.43;4.13;;;5.40;71.10;;;;;;5053650;28;20198;-53
2023/11/18 04:03:40;;;;;;;4.83;4.43;;;5.40;70.60;;;;;;5052134;28;20210;-51
2023/11/18 04:06:09;;;;;;;5.07;4.67;;;5.40;70.30;;;;;;5052726;28;20233;-51
2023/11/18 04:08:35;;;;;;;5.87;5.07;;;5.50;70.30;;;;;;5047030;28;20221;-53
2023/11/18 04:11:02;;;;;;;5.60;5.20;;;5.50;70.40;;;;;;5047065;28;20285;-52
2023/11/18 04:13:28;;;;;;;5.27;4.87;;;5.40;70.70;;;;;;5043269;28;20206;-52
2023/11/18 04:15:55;;;;;;;5.30;4.90;;;5.40;70.80;;;;;;5053633;28;20748;-54
2023/11/18 04:18:21;;;;;;;4.87;4.47;;;5.40;70.90;;;;;;5053727;28;20261;-53
2023/11/18 04:20:47;;;;;;;4.63;4.33;;;5.40;70.90;;;;;;5051834;28;20198;-49
2023/11/18 04:23:14;;;;;;;15.33;6.77;;;5.50;70.60;;;;;;5052122;28;20794;-51
2023/11/18 04:25:41;;;;;;;5.07;4.60;;;5.50;70.60;;;;;;5050421;28;20707;-51
2023/11/18 04:28:07;;;;;;;5.37;4.90;;;5.50;70.50;;;;;;5044300;28;20217;-51
2023/11/18 04:30:33;;;;;;;5.17;4.77;;;5.50;69.90;;;;;;5049753;28;20230;-51
2023/11/18 04:33:00;;;;;;;5.70;5.27;;;5.50;69.90;;;;;;5050973;28;20216;-54
2023/11/18 04:35:27;;;;;;;5.37;4.97;;;5.40;69.90;;;;;;5047583;28;20902;-52
2023/11/18 04:37:53;;;;;;;5.27;4.77;;;5.50;70.10;;;;;;5048238;28;20217;-52
2023/11/18 04:40:19;;;;;;;5.47;5.00;;;5.50;70.00;;;;;;5047271;28;20201;-52
2023/11/18 04:42:46;;;;;;;5.40;5.00;;;5.50;70.10;;;;;;5050960;28;20290;-54
2023/11/18 04:45:14;;;;;;;5.33;4.83;;;5.50;69.70;;;;;;5051153;28;20222;-51
2023/11/18 04:47:42;;;;;;;4.63;4.23;;;5.50;69.50;;;;;;5044965;28;20213;-52
2023/11/18 04:50:09;;;;;;;5.30;4.90;;;5.50;69.60;;;;;;5041318;28;20225;-51
2023/11/18 04:52:36;;;;;;;5.73;5.23;;;5.50;69.50;;;;;;5051570;28;20218;-50
2023/11/18 04:55:03;;;;;;;5.33;4.93;;;5.50;69.50;;;;;;5046346;28;20226;-50
2023/11/18 04:57:29;;;;;;;5.20;4.80;;;5.50;69.60;;;;;;5051295;28;20205;-51
2023/11/18 04:59:55;;;;;;;5.03;4.63;;;5.50;69.70;;;;;;5047905;28;20214;-51
2023/11/18 05:02:22;;;;;;;5.70;5.20;;;5.50;69.00;;;;;;5051197;28;20213;-54
2023/11/18 05:04:48;;;;;;;5.17;4.77;;;5.50;69.00;;;;;;5048385;28;20316;-50
2023/11/18 05:07:15;;;;;;;5.70;5.03;;;5.50;69.20;;;;;;5051680;28;20285;-51
2023/11/18 05:09:41;;;;;;;5.23;4.83;;;5.50;69.20;;;;;;5050823;28;20398;-52
2023/11/18 05:12:09;;;;;;;5.30;4.90;;;5.50;69.30;;;;;;5052293;28;20646;-54
2023/11/18 05:14:35;;;;;;;5.00;4.60;;;5.50;69.30;;;;;;5039524;28;20231;-51
2023/11/18 05:17:04;;;;;;;5.40;4.97;;;5.50;69.40;;;;;;5041397;28;20293;-53
2023/11/18 05:19:31;;;;;;;5.63;5.23;;;5.40;69.30;;;;;;5044978;28;20202;-49
2023/11/18 05:21:57;;;;;;;5.03;4.63;;;5.50;69.70;;;;;;5051630;28;20296;-51
2023/11/18 05:24:24;;;;;;;5.80;5.30;;;5.50;69.10;;;;;;5045790;28;20690;-53
2023/11/18 05:26:50;;;;;;;5.20;4.80;;;5.50;69.20;;;;;;5052136;28;20261;-52
2023/11/18 05:29:17;;;;;;;4.97;4.57;;;5.40;69.40;;;;;;5049540;28;20673;-52
2023/11/18 05:31:43;;;;;;;5.47;4.97;;;5.40;69.40;;;;;;5051279;28;20257;-51
2023/11/18 05:34:10;;;;;;;5.47;5.07;;;5.40;69.40;;;;;;5042424;28;20249;-51
2023/11/18 05:36:37;;;;;;;5.83;5.10;;;5.40;69.50;;;;;;5051415;28;20608;-52
2023/11/18 05:39:04;;;;;;;5.20;4.80;;;5.40;70.00;;;;;;5050192;28;20206;-54
2023/11/18 05:41:31;;;;;;;6.47;5.87;;;5.40;69.50;;;;;;5048849;28;20233;-50
2023/11/18 05:43:58;;;;;;;5.87;5.47;;;5.40;70.00;;;;;;5048701;28;20574;-50
2023/11/18 05:46:25;;;;;;;6.17;5.67;;;5.40;69.70;;;;;;5049282;28;20225;-51
2023/11/18 05:48:52;;;;;;;5.67;5.27;;;5.40;70.00;;;;;;5048261;28;20222;-51
2023/11/18 05:51:18;;;;;;;5.60;5.10;;;5.50;69.90;;;;;;5051225;28;20312;-52
2023/11/18 05:53:45;;;;;;;5.87;5.27;;;5.40;69.80;;;;;;5046464;28;20198;-53
2023/11/18 05:56:12;;;;;;;6.20;5.67;;;5.40;70.00;;;;;;5050953;28;20260;-51
2023/11/18 05:58:38;;;;;;;6.13;5.63;;;5.40;70.10;;;;;;5048334;28;20249;-53
2023/11/18 06:01:05;;;;;;;5.87;5.37;;;5.50;70.20;;;;;;5051532;28;20200;-51
2023/11/18 06:03:31;;;;;;;5.80;5.30;;;5.50;69.70;;;;;;5047972;28;20335;-55
2023/11/18 06:05:58;;;;;;;5.37;4.57;;;5.50;69.80;;;;;;5048346;28;20221;-54
2023/11/18 06:08:24;;;;;;;6.13;5.63;;;5.50;69.50;;;;;;5038154;28;20411;-54
2023/11/18 06:10:51;;;;;;;5.80;5.37;;;5.50;69.80;;;;;;5036576;28;20241;-54
2023/11/18 06:13:18;;;;;;;5.77;5.27;;;5.40;70.10;;;;;;5041267;28;20213;-52
2023/11/18 06:15:45;;;;;;;5.83;5.20;;;5.40;70.50;;;;;;5048209;28;20312;-53
2023/11/18 06:18:11;;;;;;;6.30;5.80;;;5.50;70.30;;;;;;5051228;28;20296;-57
2023/11/18 06:20:38;;;;;;;6.40;5.80;;;5.50;69.80;;;;;;5041849;28;20650;-55
2023/11/18 06:23:03;;;;;;;5.83;5.33;;;5.50;70.50;;;;;;5047038;28;20252;-52
2023/11/18 06:25:31;;;;;;;5.60;5.10;;;5.50;69.90;;;;;;5044115;28;20245;-52
2023/11/18 06:27:58;;;;;;;5.37;4.87;;;5.50;69.80;;;;;;5047971;28;20668;-56
2023/11/18 06:30:26;;;;;;;6.07;5.47;;;5.40;70.10;;;;;;5045562;28;20718;-55
2023/11/18 06:32:52;;;;;;;5.87;5.33;;;5.50;70.20;;;;;;5047000;28;20208;-54
2023/11/18 06:35:21;;;;;;;6.63;5.90;;;5.50;70.30;;;;;;5046754;28;20380;-52
2023/11/18 06:37:47;;;;;;;6.07;5.30;;;5.50;70.20;;;;;;5047292;28;20215;-54
2023/11/18 06:40:18;;;;;;;6.23;5.63;;;5.50;70.20;;;;;;5045932;28;20199;-54
2023/11/18 06:42:46;;;;;;;6.63;6.03;;;5.60;70.10;;;;;;5035132;28;20268;-52
2023/11/18 06:45:13;;;;;;;5.73;4.97;;;5.60;69.90;;;;;;5044315;28;20250;-55
2023/11/18 06:47:43;;;;;;;5.70;5.20;;;5.60;69.70;;;;;;5047102;28;21624;-53
2023/11/18 06:50:09;;;;;;;5.63;5.13;;;5.60;69.80;;;;;;5047264;28;20217;-53
2023/11/18 06:52:36;;;;;;;4.97;4.47;;;5.60;70.00;;;;;;5045711;28;20260;-50
2023/11/18 06:55:03;;;;;;;5.90;5.40;;;5.60;71.00;;;;;;5042088;28;20762;-56
2023/11/18 06:57:29;;;;;;;6.03;5.53;;;5.60;70.00;;;;;;5042995;28;20239;-53
2023/11/18 06:59:56;;;;;;;6.37;5.33;;;5.60;70.10;;;;;;5047173;28;20219;-53
2023/11/18 07:02:22;;;;;;;5.90;5.33;;;5.70;69.90;;;;;;5043546;28;20294;-53
2023/11/18 07:04:49;;;;;;;5.53;5.00;;;5.70;69.70;;;;;;5049011;28;20394;-51
2023/11/18 07:07:16;;;;;;;5.97;5.20;;;5.70;69.80;;;;;;5045164;28;20522;-52
2023/11/18 07:09:44;;;;;;;5.63;5.10;;;5.60;69.50;;;;;;5049747;28;20239;-53
2023/11/18 07:12:10;;;;;;;6.03;5.43;;;5.60;69.90;;;;;;5049351;28;20222;-52
2023/11/18 07:14:37;;;;;;;5.97;4.97;;;5.70;70.20;;;;;;5044493;28;20230;-56
2023/11/18 07:17:04;;;;;;;5.97;4.77;;;5.70;69.50;;;;;;5046108;28;20735;-51
2023/11/18 07:19:33;;;;;;;6.33;5.20;;;5.70;69.30;;;;;;5016181;28;20226;-52
2023/11/18 07:21:59;;;;;;;6.13;5.53;;;5.70;69.20;;;;;;5039319;28;20221;-53
2023/11/18 07:24:26;;;;;;;5.70;5.20;;;5.80;69.10;;;;;;5038033;28;20230;-52
2023/11/18 07:26:52;;;;;;;5.83;5.23;;;5.80;69.10;;;;;;5023784;28;20862;-50
2023/11/18 07:29:19;;;;;;;5.87;5.27;;;5.80;69.30;;;;;;5033621;28;20214;-53
2023/11/18 07:31:46;;;;;;;6.07;5.47;;;5.80;69.40;;;;;;5029765;28;20260;-53
2023/11/18 07:34:12;;;;;;;7.10;5.07;;;5.80;68.90;;;;;;5014330;28;20232;-54
2023/11/18 07:36:39;;;;;;;5.97;5.40;;;5.90;69.00;;;;;;5026518;28;20232;-51
2023/11/18 07:39:15;;;;;;;5.80;5.30;;;5.80;69.00;;;;;;5026809;28;20204;-50
2023/11/18 07:41:43;;;;;;;6.87;6.17;;;5.80;69.90;;;;;;5006832;28;20231;-51
2023/11/18 07:44:12;;;;;;;6.10;5.40;;;5.90;69.20;;;;;;5004929;28;20297;-50
2023/11/18 07:46:42;;;;;;;5.57;5.07;;;5.90;69.20;;;;;;5021238;28;20246;-51
2023/11/18 07:49:08;;;;;;;5.67;5.17;;;5.90;68.90;;;;;;5029914;28;20666;-50
2023/11/18 07:51:35;;;;;;;5.90;5.30;;;6.00;68.80;;;;;;5039730;28;20223;-54
2023/11/18 07:54:03;;;;;;;5.80;5.20;;;6.10;68.20;;;;;;5031863;28;20289;-52
2023/11/18 07:56:32;;;;;;;5.53;5.03;;;6.10;68.20;;;;;;5038263;28;20238;-55
2023/11/18 07:58:58;;;;;;;5.90;5.30;;;6.10;68.30;;;;;;5032382;28;20500;-60
2023/11/18 08:01:26;;;;;;;6.40;5.80;;;6.20;68.10;;;;;;5041599;28;20271;-61
2023/11/18 08:03:52;;;;;;;6.50;5.87;;;6.20;67.50;;;;;;5028160;28;20215;-57
2023/11/18 08:06:19;;;;;;;4.87;4.40;;;6.20;67.50;;;;;;5034418;28;20226;-60
2023/11/18 08:08:47;;;;;;;5.73;5.17;;;6.30;67.10;;;;;;5034928;28;20299;-55
2023/11/18 08:11:14;;;;;;;4.87;4.47;;;6.30;66.50;;;;;;5036438;28;20765;-63
2023/11/18 08:13:41;;;;;;;4.90;4.47;;;6.30;66.00;;;;;;5026680;28;20678;-57
2023/11/18 08:16:08;;;;;;;5.07;4.57;;;6.30;65.40;;;;;;5033188;28;20768;-56
2023/11/18 08:18:35;;;;;;;5.13;4.73;;;6.30;65.90;;;;;;5035295;28;20209;-56
2023/11/18 08:21:02;;;;;;;6.33;5.50;;;6.40;66.00;;;;;;5015905;28;20199;-61
2023/11/18 08:23:29;;;;;;;5.20;4.70;;;6.40;66.30;;;;;;5002529;28;20216;-62
2023/11/18 08:25:55;;;;;;;5.63;5.10;;;6.50;66.10;;;;;;5000204;28;20920;-57
2023/11/18 08:28:22;;;;;;;5.27;4.87;;;6.40;66.60;;;;;;4990700;28;20212;-55
2023/11/18 08:30:51;;;;;;;6.47;5.30;;;6.40;66.30;;;;;;4990304;28;20244;-53
2023/11/18 08:33:18;;;;;;;5.70;5.20;;;6.50;66.50;;;;;;4993033;28;20280;-55
2023/11/18 08:35:44;;;;;;;5.70;5.20;;;6.50;65.30;;;;;;4987311;28;20766;-51
2023/11/18 08:38:12;;;;;;;5.63;5.13;;;6.40;65.30;;;;;;4974044;28;20203;-51
2023/11/18 08:40:38;;;;;;;5.53;5.00;;;6.50;64.90;;;;;;4988532;28;20221;-55
2023/11/18 08:43:07;;;;;;;5.63;5.13;;;6.50;65.00;;;;;;4989692;28;20203;-49
2023/11/18 08:45:34;;;;;;;5.63;4.70;;;6.50;66.10;;;;;;4989737;28;20236;-57
2023/11/18 08:48:01;;;;;;;4.87;4.37;;;6.60;65.40;;;;;;5006053;28;20238;-52
2023/11/18 08:50:28;;;;;;;5.03;4.63;;;6.70;65.60;;;;;;5000702;28;20219;-55
2023/11/18 08:52:57;;;;;;;4.57;4.27;;;6.70;65.10;;;;;;4988037;28;20355;-53
2023/11/18 08:55:27;;;;;;;5.07;4.53;;;6.80;65.20;;;;;;4987387;28;20268;-52
2023/11/18 08:58:03;;;;;;;4.90;4.50;;;6.90;65.30;;;;;;4985578;28;20281;-50
2023/11/18 09:00:50;;;;;;;4.30;3.90;;;7.00;63.80;;;;;;4984994;28;20890;-50
2023/11/18 09:03:24;;;;;;;4.53;4.13;;;7.00;63.50;;;;;;5002057;28;20214;-52
2023/11/18 09:05:56;;;;;;;4.10;3.73;;;7.00;62.30;;;;;;4992562;28;20232;-50
2023/11/18 09:08:23;;;;;;;4.50;4.10;;;7.00;62.30;;;;;;4987552;28;20706;-50
2023/11/18 09:10:49;;;;;;;4.20;3.80;;;7.00;62.10;;;;;;4987081;28;20668;-52
2023/11/18 09:13:17;;;;;;;4.00;3.70;;;7.00;62.30;;;;;;4989937;28;21463;-52
2023/11/18 09:15:44;;;;;;;4.20;3.90;;;7.00;61.50;;;;;;4998355;28;20642;-52
2023/11/18 09:18:10;;;;;;;4.30;3.73;;;7.00;61.40;;;;;;5011623;28;20208;-50
2023/11/18 09:20:37;;;;;;;4.07;3.77;;;7.00;61.50;;;;;;5030356;28;20208;-54
2023/11/18 09:23:06;;;;;;;4.10;3.70;;;7.10;61.80;;;;;;5028235;28;20691;-52
2023/11/18 09:25:33;;;;;;;4.30;3.90;;;7.30;61.00;;;;;;5032310;28;20313;-54
2023/11/18 09:28:00;;;;;;;4.80;3.63;;;7.60;59.90;;;;;;5024708;28;20216;-53
2023/11/18 09:30:26;;;;;;;3.70;3.40;;;7.70;59.50;;;;;;5029329;28;20207;-51
2023/11/18 09:32:54;;;;;;;4.17;3.80;;;7.90;59.20;;;;;;5030642;28;20317;-53
2023/11/18 09:35:21;;;;;;;4.40;3.60;;;8.10;58.90;;;;;;5023836;28;22245;-50
2023/11/18 09:37:47;;;;;;;3.87;3.27;;;8.20;58.20;;;;;;5006804;28;22626;-53
2023/11/18 09:40:14;;;;;;;4.30;3.63;;;8.30;57.20;;;;;;5029713;28;20215;-51
2023/11/18 09:42:43;;;;;;;3.33;3.13;;;8.30;57.30;;;;;;5032465;28;20258;-53
2023/11/18 09:45:13;;;;;;;3.33;3.13;;;8.40;57.10;;;;;;5006186;28;20239;-53
2023/11/18 09:47:42;;;;;;;3.53;2.83;;;8.50;56.40;;;;;;5020652;28;20232;-54
2023/11/18 09:50:10;;;;;;;3.20;3.00;;;8.70;55.90;;;;;;5023812;28;20212;-52
2023/11/18 09:52:36;;;;;;;3.43;3.13;;;9.00;55.30;;;;;;5029623;28;20233;-51
2023/11/18 09:55:03;;;;;;;3.13;2.90;;;9.50;53.20;;;;;;5029125;28;20268;-50
2023/11/18 09:57:29;;;;;;;3.30;3.00;;;10.20;51.20;;;;;;5029050;28;20209;-52
2023/11/18 09:59:55;;;;;;;3.00;2.53;;;10.30;50.50;;;;;;5016298;28;20214;-50
2023/11/18 10:02:22;;;;;;;2.70;2.50;;;10.00;50.70;;;;;;5025974;28;20202;-53
2023/11/18 10:04:49;;;;;;;2.67;2.40;;;10.20;50.50;;;;;;5034369;28;20325;-53
2023/11/18 10:07:16;;;;;;;2.53;2.33;;;10.60;51.70;;;;;;5021541;28;20209;-54
2023/11/18 10:09:43;;;;;;;3.17;2.90;;;10.90;49.00;;;;;;5031928;28;20299;-51
2023/11/18 10:12:12;;;;;;;3.20;2.30;;;11.30;48.00;;;;;;5032079;28;20671;-49
2023/11/18 10:14:41;;;;;;;3.47;2.10;;;11.50;47.20;;;;;;5027914;28;20226;-54
2023/11/18 10:17:08;;;;;;;3.07;2.77;;;11.30;46.70;;;;;;5028707;28;20238;-51
2023/11/18 10:19:35;;;;;;;2.50;2.30;;;11.30;47.00;;;;;;5024428;28;20214;-52
2023/11/18 10:22:04;;;;;;;4.50;2.53;;;11.40;47.20;;;;;;5023312;28;20205;-50
2023/11/18 10:24:30;;;;;;;2.47;2.28;;;11.80;46.10;;;;;;5025081;28;20293;-49
2023/11/18 10:26:57;;;;;;;1.92;1.80;;;12.30;44.80;;;;;;5024942;28;20272;-49
2023/11/18 10:29:23;;;;;;;2.22;2.03;;;13.00;43.70;;;;;;5025075;28;20214;-49
2023/11/18 10:31:53;;;;;;;2.03;1.80;;;12.90;42.50;;;;;;5031427;28;20632;-50
2023/11/18 10:34:21;;;;;;;1.90;1.80;;;12.70;42.30;;;;;;5028983;28;20262;-51
2023/11/18 10:36:48;;;;;;;1.90;1.80;;;12.80;42.60;;;;;;5024415;28;20398;-54
2023/11/18 10:39:16;;;;;;;1.67;1.58;;;13.00;42.60;;;;;;5022574;28;20209;-49
2023/11/18 10:41:43;;;;;;;2.00;1.73;;;13.00;42.10;;;;;;5017856;28;20674;-51
2023/11/18 10:44:13;;;;;;;2.40;2.20;;;13.60;41.30;;;;;;5027401;28;20217;-52
2023/11/18 10:46:40;;;;;;;1.58;1.48;;;13.80;40.20;;;;;;5027786;28;20209;-50
2023/11/18 10:49:09;;;;;;;2.10;2.00;;;13.20;40.60;;;;;;5019901;28;20579;-50
2023/11/18 10:51:38;;;;;;;1.83;1.73;;;13.20;40.60;;;;;;5029294;28;20241;-52
2023/11/18 10:54:13;;;;;;;1.90;1.70;;;13.50;40.60;;;;;;5028260;28;20206;-50
2023/11/18 10:56:40;;;;;;;1.90;1.80;;;13.00;40.30;;;;;;5023075;28;20206;-49
2023/11/18 10:59:06;;;;;;;1.55;1.45;;;13.10;40.90;;;;;;5026655;28;20345;-49
2023/11/18 11:01:33;;;;;;;1.70;1.50;;;14.30;37.80;;;;;;5017666;28;20221;-51
2023/11/18 11:03:59;;;;;;;3.45;2.03;;;16.30;34.70;;;;;;5033243;28;20245;-50
2023/11/18 11:06:26;;;;;;;1.70;1.60;;;17.10;32.00;;;;;;5025633;28;20375;-49
2023/11/18 11:08:52;;;;;;;1.98;1.70;;;18.50;29.30;;;;;;5029336;28;20289;-48
2023/11/18 11:11:21;;;;;;;1.60;1.50;;;18.20;30.00;;;;;;5030432;28;20213;-53
2023/11/18 11:13:48;;;;;;;2.65;1.33;;;17.00;31.90;;;;;;5017863;28;20655;-52
2023/11/18 11:16:15;;;;;;;2.47;1.42;;;15.00;34.40;;;;;;5017789;28;20222;-56
2023/11/18 11:18:45;;;;;;;1.40;1.30;;;13.50;34.80;;;;;;5013279;28;20228;-52
2023/11/18 11:21:15;;;;;;;1.67;1.58;;;12.10;39.00;;;;;;5027421;28;20323;-49
2023/11/18 11:23:43;;;;;;;1.50;1.40;;;11.40;40.60;;;;;;5028212;28;20689;-51
2023/11/18 11:26:13;;;;;;;2.07;1.70;;;10.80;42.80;;;;;;5030491;28;20264;-51
2023/11/18 11:28:40;;;;;;;2.23;1.80;;;10.70;42.30;;;;;;5030756;28;20218;-49
2023/11/18 11:31:07;;;;;;;2.40;1.80;;;10.50;42.70;;;;;;5028401;28;20206;-52
2023/11/18 11:33:40;;;;;;;2.70;1.83;;;10.50;43.10;;;;;;5031440;28;20230;-48
2023/11/18 11:36:11;;;;;;;1.73;1.60;;;10.50;42.90;;;;;;5035336;28;20228;-50
2023/11/18 11:38:38;;;;;;;1.70;1.60;;;10.50;43.20;;;;;;5031821;28;20207;-49
2023/11/18 11:41:05;;;;;;;2.00;1.80;;;10.80;42.20;;;;;;5033770;28;20231;-52
2023/11/18 11:43:34;;;;;;;2.37;1.90;;;10.60;42.40;;;;;;5028093;28;20230;-51
2023/11/18 11:46:03;;;;;;;2.10;1.90;;;10.30;43.70;;;;;;5027784;28;20234;-49
2023/11/18 11:48:35;;;;;;;1.93;1.83;;;10.00;44.10;;;;;;5030745;28;20257;-51
2023/11/18 11:51:03;;;;;;;2.43;2.03;;;9.90;44.60;;;;;;5026742;28;20214;-49
2023/11/18 11:53:31;;;;;;;1.70;1.60;;;;;;;;;;5032045;28;20224;-51
2023/11/18 11:56:05;;;;;;;1.67;1.57;;;12.80;36.30;;;;;;5031820;28;20711;-52
2023/11/18 11:58:32;;;;;;;2.10;1.90;;;;;;;;;;5029359;28;20220;-49
2023/11/18 12:00:58;;;;;;;2.23;1.73;;;11.40;39.40;;;;;;5027767;28;20530;-52
2023/11/18 12:03:25;;;;;;;2.37;2.17;;;10.60;42.80;;;;;;5025606;28;20212;-52
2023/11/18 12:05:52;;;;;;;1.90;1.80;;;10.40;44.30;;;;;;5027710;28;20235;-52
2023/11/18 12:08:19;;;;;;;2.10;1.67;;;;;;;;;;5024659;28;20210;-52
2023/11/18 12:10:45;;;;;;;2.03;1.70;;;10.00;44.40;;;;;;5021795;28;20296;-52
2023/11/18 12:13:16;;;;;;;1.83;1.73;;;10.00;44.50;;;;;;5030466;28;20815;-52
2023/11/18 12:15:42;;;;;;;3.37;1.60;;;10.40;43.90;;;;;;5025486;28;20230;-48
2023/11/18 12:18:08;;;;;;;1.90;1.80;;;11.10;42.40;;;;;;5024027;28;20245;-47
2023/11/18 12:20:36;;;;;;;1.60;1.50;;;11.20;41.50;;;;;;5029518;28;20206;-50
2023/11/18 12:23:04;;;;;;;1.83;1.70;;;11.00;40.80;;;;;;5029489;28;20294;-50
2023/11/18 12:25:32;;;;;;;2.50;1.83;;;10.80;42.10;;;;;;5029779;28;20222;-48
2023/11/18 12:27:59;;;;;;;2.20;1.53;;;10.50;44.00;;;;;;5020150;28;20741;-50
2023/11/18 12:30:29;;;;;;;1.60;1.50;;;10.30;43.90;;;;;;5027659;28;20263;-48
2023/11/18 12:32:55;;;;;;;1.90;1.80;;;10.30;43.70;;;;;;5030483;28;20310;-51
2023/11/18 12:35:22;;;;;;;2.70;1.73;;;10.30;44.50;;;;;;5032258;28;20338;-53
2023/11/18 12:37:49;;;;;;;2.60;1.70;;;10.20;43.40;;;;;;5030911;28;20289;-50
2023/11/18 12:40:17;;;;;;;1.70;1.60;;;;;;;;;;5030671;28;20238;-51
2023/11/18 12:42:44;;;;;;;2.00;1.80;;;10.30;52.80;;;;;;5023731;28;20247;-50
2023/11/18 12:45:14;;;;;;;2.53;1.77;;;10.30;55.00;;;;;;5022117;28;20252;-53
2023/11/18 12:47:40;;;;;;;1.47;1.37;;;10.20;54.60;;;;;;5028626;28;20261;-52
2023/11/18 12:50:07;;;;;;;1.47;1.37;;;10.30;54.40;;;;;;5041979;28;20294;-54
2023/11/18 12:52:33;;;;;;;1.93;1.83;;;10.40;53.50;;;;;;5038008;28;20254;-53
2023/11/18 12:55:01;;;;;;;2.13;1.83;;;10.40;53.40;;;;;;5029212;28;20219;-49